Cotopaxi International Airport
SELT : now visible

Airfield :











YOU CAN JOIN US ON...

 
LOGIN :

Register | Disclaimer

   EN    FR    IT 

 









Legend :    VFR   Marginal VFR   IFR   Intensive IFR   Very Intensive IFR
Visi :
Ceiling :
>= 8 km
>= 3000ft
5 to 8 km
1000 to 3000 ft
1500m to 5 km
500 to 1000 ft
800 to 1500m
200 to 500 ft
< 800m
< 200 ft
Symbols :   Thunderstorms  Fog  Heavy snow  Heavy precipitations  Wind > 20 kt






- Airport Elevation : 9205 ft
- IATA code : LTX


SELT - Cotopaxi International

CURRENT METAR :
  • 210300Z 15005KT 9999 SCT026 BKN100 11/09 Q1030

EXPIRED METARs :
  • 210200Z 20002KT 9999 SCT026 BKN100 12/09 Q1029
  • 210100Z 15005KT 9999 FEW026 BKN100 13/09 Q1028

TAF SELT
Valid from the 21 at 00:00 until the 22 at 00:00 UTC


202230Z 2100/2124 20004KT 9999 FEW026 BKN100 BKN300
BECMG 2102/2104 SCT010 BKN030 BKN100
BECMG 2112/2114 18008KT SCT030 BKN100
BECMG 2116/2118 18016KT
TEMPO 2119/2122 TSRA FEW026CB BKN030 BKN100 TX18/2119Z TN09/2111Z



MET'MAP, your aeronautical weather chart ! - Copyright ORBIFLY December 2007 - Disclaimer

ORBIFLY MET'MAP TEAM :

Programming & Development : Alexandra Zaïnal
Concept & original design : Baudouin d'Aumeries
Assistance for programming : Marc-Olivier Méhu
Technical & hardware support : Manuel Goepfert

Contact : metmap@orbifly.com




SOURCES & CREDITS :

   NOAA       Earth
Advisory